Time;durP1;ratioP1;P1;durP2;ratioP2;P2;SDS_P1;SDS_P2;PMS_P1;PMS_P2;Temp;Humidity;BMP_temperature;BMP_pressure;BME280_temperature;BME280_humidity;BME280_pressure;Samples;Min_cycle;Max_cycle;Signal;HPM_P1;HPM_P2
2023/11/01 00:00:43;;;;;;;99.28;37.33;;;9.60;99.90;;;;;;7381555;19;20483;-68
2023/11/01 00:03:09;;;;;;;107.93;41.45;;;9.60;99.90;;;;;;7378800;19;20347;-66
2023/11/01 00:05:36;;;;;;;104.22;39.08;;;9.70;99.90;;;;;;7380250;19;20015;-66
2023/11/01 00:08:02;;;;;;;99.82;38.72;;;9.70;99.90;;;;;;7378051;19;20031;-66
2023/11/01 00:10:29;;;;;;;97.57;39.22;;;9.80;99.90;;;;;;7377312;19;20051;-67
2023/11/01 00:12:55;;;;;;;96.38;38.33;;;9.80;99.90;;;;;;7378293;19;20018;-67
2023/11/01 00:15:22;;;;;;;99.55;40.65;;;9.80;99.90;;;;;;7378122;19;20010;-67
2023/11/01 00:17:48;;;;;;;102.80;39.40;;;9.90;99.90;;;;;;7378746;19;20030;-68
2023/11/01 00:20:14;;;;;;;97.43;38.85;;;9.90;99.90;;;;;;7376819;19;20883;-68
2023/11/01 00:22:40;;;;;;;83.93;37.78;;;9.90;99.90;;;;;;7377928;19;20014;-67
2023/11/01 00:25:07;;;;;;;84.50;38.05;;;10.00;99.90;;;;;;7377197;19;20470;-68
2023/11/01 00:27:34;;;;;;;83.40;39.67;;;10.00;99.90;;;;;;7379775;19;20064;-67
2023/11/01 00:30:00;;;;;;;82.25;39.50;;;10.00;99.90;;;;;;7370528;19;20027;-66
2023/11/01 00:32:26;;;;;;;78.78;36.90;;;10.10;99.90;;;;;;7378009;19;20022;-66
2023/11/01 00:34:53;;;;;;;74.68;38.45;;;10.10;99.90;;;;;;7377244;19;20022;-67
2023/11/01 00:37:20;;;;;;;80.68;37.38;;;10.20;99.90;;;;;;7378979;19;20055;-67
2023/11/01 00:39:46;;;;;;;89.32;39.35;;;10.20;99.90;;;;;;7377552;19;20028;-68
2023/11/01 00:42:12;;;;;;;77.25;37.50;;;10.20;99.90;;;;;;7377076;19;20019;-68
2023/11/01 00:44:39;;;;;;;75.00;37.38;;;10.30;99.90;;;;;;7381126;19;20497;-68
2023/11/01 00:47:05;;;;;;;64.47;35.00;;;10.30;99.90;;;;;;7376884;19;20022;-68
2023/11/01 00:49:32;;;;;;;73.28;37.78;;;10.30;99.90;;;;;;7379331;19;20640;-66
2023/11/01 00:51:58;;;;;;;64.93;35.70;;;10.30;99.90;;;;;;7375778;19;20089;-67
2023/11/01 00:54:24;;;;;;;62.22;34.40;;;10.30;99.90;;;;;;7375845;19;20352;-68
2023/11/01 00:56:50;;;;;;;62.20;35.63;;;10.30;99.90;;;;;;7369649;19;20033;-66
2023/11/01 00:59:17;;;;;;;63.08;34.95;;;10.20;99.90;;;;;;7374746;19;20026;-67
2023/11/01 01:01:43;;;;;;;54.78;33.15;;;10.30;99.90;;;;;;7373914;19;20018;-68
2023/11/01 01:04:10;;;;;;;59.45;33.92;;;10.20;99.90;;;;;;7376723;19;20780;-67
2023/11/01 01:06:36;;;;;;;63.17;35.20;;;10.20;99.90;;;;;;7371795;19;20046;-67
2023/11/01 01:09:03;;;;;;;58.05;33.45;;;10.20;99.90;;;;;;7373302;19;20489;-66
2023/11/01 01:11:33;;;;;;;61.50;32.13;;;10.10;99.90;;;;;;7373588;19;20022;-66
2023/11/01 01:13:59;;;;;;;59.90;32.83;;;10.10;99.90;;;;;;7371413;19;20025;-66
2023/11/01 01:16:25;;;;;;;56.10;31.70;;;10.10;99.90;;;;;;7373273;19;20018;-67
2023/11/01 01:18:51;;;;;;;52.33;30.92;;;10.10;99.90;;;;;;7368771;19;20019;-68
2023/11/01 01:21:18;;;;;;;63.67;32.72;;;10.00;99.90;;;;;;7375883;19;20014;-67
2023/11/01 01:23:44;;;;;;;53.13;31.83;;;10.00;99.90;;;;;;7372317;19;20018;-67
2023/11/01 01:26:10;;;;;;;54.30;30.85;;;9.90;99.90;;;;;;7376532;19;20134;-67
2023/11/01 01:28:36;;;;;;;61.30;31.00;;;9.90;99.90;;;;;;7374783;19;20057;-67
2023/11/01 01:31:03;;;;;;;60.58;33.22;;;9.90;99.90;;;;;;7371238;19;20025;-67
2023/11/01 01:33:29;;;;;;;75.18;34.00;;;9.80;99.90;;;;;;7371815;19;20018;-68
2023/11/01 01:35:57;;;;;;;54.53;31.20;;;9.70;99.90;;;;;;7372906;19;20025;-68
2023/11/01 01:38:23;;;;;;;70.75;34.15;;;9.70;99.90;;;;;;7373628;19;20030;-68
2023/11/01 01:40:50;;;;;;;60.45;32.65;;;9.60;99.90;;;;;;7370154;19;20670;-67
2023/11/01 01:43:17;;;;;;;60.00;31.88;;;9.60;99.90;;;;;;7376678;19;20431;-67
2023/11/01 01:45:45;;;;;;;69.13;34.28;;;9.60;99.90;;;;;;7374661;19;20025;-68
2023/11/01 01:48:12;;;;;;;66.43;34.17;;;9.60;99.90;;;;;;7372817;19;20018;-67
2023/11/01 01:50:39;;;;;;;73.22;34.50;;;9.50;99.90;;;;;;7370303;19;20018;-67
2023/11/01 01:53:06;;;;;;;57.92;32.13;;;9.50;99.90;;;;;;7369639;19;20026;-67
2023/11/01 01:55:32;;;;;;;63.60;33.80;;;9.40;99.90;;;;;;7373344;19;20033;-67
2023/11/01 01:58:00;;;;;;;63.00;31.90;;;9.40;99.90;;;;;;7223117;19;2902772;-66
2023/11/01 02:00:28;;;;;;;57.70;31.85;;;9.40;99.90;;;;;;7375485;19;20025;-66
2023/11/01 02:02:55;;;;;;;54.80;30.50;;;9.40;99.90;;;;;;7370546;19;20025;-67
2023/11/01 02:05:21;;;;;;;72.55;33.55;;;9.40;99.90;;;;;;7374953;19;20085;-66
2023/11/01 02:07:47;;;;;;;68.22;33.38;;;9.40;99.90;;;;;;7375723;19;20089;-67
2023/11/01 02:10:14;;;;;;;73.50;33.45;;;9.50;99.90;;;;;;7369323;19;20022;-67
2023/11/01 02:12:41;;;;;;;71.32;32.85;;;9.50;99.90;;;;;;7374660;19;20051;-68
2023/11/01 02:15:08;;;;;;;62.72;32.47;;;9.60;99.90;;;;;;7370358;19;20582;-68
2023/11/01 02:17:34;;;;;;;71.47;34.35;;;9.60;99.90;;;;;;7373134;19;20039;-68
2023/11/01 02:20:02;;;;;;;63.00;32.63;;;9.70;99.90;;;;;;7370664;19;20026;-68
2023/11/01 02:22:28;;;;;;;61.95;31.73;;;9.70;99.90;;;;;;7374343;19;20753;-68
2023/11/01 02:24:55;;;;;;;64.75;32.90;;;9.70;99.90;;;;;;7366200;19;20547;-68
2023/11/01 02:27:21;;;;;;;62.15;29.77;;;9.70;99.90;;;;;;7374781;19;20113;-68
2023/11/01 02:29:48;;;;;;;61.75;31.05;;;9.80;99.90;;;;;;7371845;19;20025;-68
2023/11/01 02:32:14;;;;;;;54.97;29.38;;;9.80;99.90;;;;;;7374208;19;20041;-68
2023/11/01 02:34:40;;;;;;;54.60;29.08;;;9.80;99.90;;;;;;7370713;19;20499;-68
2023/11/01 02:37:07;;;;;;;56.20;30.10;;;9.80;99.90;;;;;;7372980;19;20023;-68
2023/11/01 02:39:33;;;;;;;55.00;28.38;;;9.90;99.90;;;;;;7370453;19;20054;-68
2023/11/01 02:41:59;;;;;;;47.17;28.60;;;9.90;99.90;;;;;;7371108;19;20019;-68
2023/11/01 02:44:25;;;;;;;58.45;30.02;;;9.90;99.90;;;;;;7370416;19;20442;-66
2023/11/01 02:46:52;;;;;;;50.83;28.92;;;9.90;99.90;;;;;;7370693;19;20029;-67
2023/11/01 02:49:18;;;;;;;57.20;29.63;;;9.90;99.90;;;;;;7373141;19;20014;-67
2023/11/01 02:51:47;;;;;;;56.92;29.85;;;10.00;99.90;;;;;;7372162;19;20823;-66
2023/11/01 02:54:16;;;;;;;55.85;28.73;;;10.00;99.90;;;;;;7366434;19;20396;-66
2023/11/01 02:56:42;;;;;;;50.30;27.35;;;10.00;99.90;;;;;;7367346;19;20021;-67
2023/11/01 02:59:09;;;;;;;54.97;27.92;;;10.00;99.90;;;;;;7374319;19;20030;-67
2023/11/01 03:01:36;;;;;;;43.75;25.75;;;10.10;99.90;;;;;;7361032;19;20023;-68
2023/11/01 03:04:02;;;;;;;47.20;25.63;;;10.10;99.90;;;;;;7370681;19;20024;-67
2023/11/01 03:06:29;;;;;;;49.17;27.80;;;10.10;99.90;;;;;;7373206;19;20018;-66
2023/11/01 03:08:55;;;;;;;45.58;27.55;;;10.20;99.90;;;;;;7368954;19;20026;-66
2023/11/01 03:11:21;;;;;;;50.08;27.65;;;10.20;99.90;;;;;;7369884;19;20670;-68
2023/11/01 03:13:49;;;;;;;54.38;28.95;;;10.20;99.90;;;;;;7368003;19;20022;-68
2023/11/01 03:16:15;;;;;;;54.33;27.83;;;10.20;99.90;;;;;;7373161;19;20018;-68
2023/11/01 03:18:44;;;;;;;47.10;29.40;;;10.20;99.90;;;;;;7366269;19;20007;-66
2023/11/01 03:21:10;;;;;;;50.92;29.13;;;10.20;99.90;;;;;;7368994;19;20019;-66
2023/11/01 03:23:36;;;;;;;49.25;28.00;;;10.30;99.90;;;;;;7370135;19;20107;-66
2023/11/01 03:26:03;;;;;;;51.80;29.40;;;10.20;99.90;;;;;;7359348;19;20014;-66
2023/11/01 03:28:29;;;;;;;52.10;29.23;;;10.30;99.90;;;;;;7365353;19;20863;-68
2023/11/01 03:30:58;;;;;;;47.08;27.63;;;10.30;99.90;;;;;;7366439;19;20018;-67
2023/11/01 03:33:28;;;;;;;49.45;27.15;;;10.30;99.90;;;;;;7366689;19;20018;-68
2023/11/01 03:35:54;;;;;;;51.55;27.58;;;10.30;99.90;;;;;;7367392;19;20026;-68
2023/11/01 03:38:20;;;;;;;51.40;27.13;;;10.40;99.90;;;;;;7367859;19;20114;-69
2023/11/01 03:40:47;;;;;;;50.75;27.90;;;10.40;99.90;;;;;;7373381;19;20030;-68
2023/11/01 03:43:13;;;;;;;48.03;27.92;;;10.50;99.90;;;;;;7369254;19;20029;-68
2023/11/01 03:45:40;;;;;;;48.78;27.63;;;10.50;99.90;;;;;;7373176;19;20025;-68
2023/11/01 03:48:07;;;;;;;56.22;29.98;;;10.50;99.90;;;;;;7365593;19;20025;-67
2023/11/01 03:50:33;;;;;;;47.53;27.80;;;10.60;99.90;;;;;;7368067;19;20026;-69
2023/11/01 03:52:59;;;;;;;43.10;29.23;;;10.60;99.90;;;;;;7363075;19;20490;-67
2023/11/01 03:55:25;;;;;;;48.30;27.58;;;10.60;99.90;;;;;;7367840;19;20022;-69
2023/11/01 03:57:51;;;;;;;53.80;28.13;;;10.60;99.90;;;;;;7367306;19;20043;-68
2023/11/01 04:00:21;;;;;;;52.00;28.40;;;10.60;99.90;;;;;;7372717;19;20878;-68
2023/11/01 04:02:49;;;;;;;54.15;28.13;;;10.60;99.90;;;;;;7368458;19;20019;-68
2023/11/01 04:05:16;;;;;;;53.80;29.90;;;10.60;99.90;;;;;;7371217;19;20506;-67
2023/11/01 04:07:44;;;;;;;45.55;28.02;;;10.70;99.90;;;;;;7373173;19;20052;-67
2023/11/01 04:10:11;;;;;;;47.75;27.63;;;10.60;99.90;;;;;;7370627;19;20014;-66
2023/11/01 04:12:37;;;;;;;51.88;28.63;;;10.70;99.90;;;;;;7369331;19;20022;-68
2023/11/01 04:15:05;;;;;;;53.92;29.17;;;10.60;99.90;;;;;;7368406;19;20018;-68
2023/11/01 04:17:31;;;;;;;43.97;27.83;;;10.70;99.90;;;;;;7371730;19;20018;-68
2023/11/01 04:19:58;;;;;;;46.58;27.20;;;10.70;99.90;;;;;;7367919;19;20014;-68
2023/11/01 04:22:27;;;;;;;43.65;26.20;;;10.70;99.90;;;;;;7364965;19;20048;-68
2023/11/01 04:24:54;;;;;;;45.78;26.55;;;10.70;99.90;;;;;;7369308;19;20011;-68
2023/11/01 04:27:21;;;;;;;52.83;28.05;;;10.70;99.90;;;;;;7369353;19;20467;-68
2023/11/01 04:29:54;;;;;;;42.53;25.67;;;10.70;99.90;;;;;;7374889;19;20025;-68
2023/11/01 04:32:28;;;;;;;48.90;27.17;;;10.70;99.90;;;;;;7370416;19;20034;-68
2023/11/01 04:34:55;;;;;;;46.17;27.98;;;10.70;99.90;;;;;;7375622;19;20022;-68
2023/11/01 04:37:23;;;;;;;47.30;27.13;;;10.70;99.90;;;;;;7378516;19;20018;-68
2023/11/01 04:39:50;;;;;;;45.15;27.42;;;10.80;99.90;;;;;;7377638;19;20098;-68
2023/11/01 04:42:17;;;;;;;43.75;27.20;;;10.80;99.90;;;;;;7379095;19;20467;-68
2023/11/01 04:44:44;;;;;;;40.70;26.70;;;10.70;99.90;;;;;;7380478;19;20019;-68
2023/11/01 04:47:11;;;;;;;43.13;26.67;;;10.80;99.90;;;;;;7374542;19;20455;-68
2023/11/01 04:49:38;;;;;;;39.70;24.92;;;10.80;99.90;;;;;;7379432;19;20022;-68
2023/11/01 04:52:06;;;;;;;39.40;25.58;;;10.80;99.90;;;;;;7378272;19;20022;-68
2023/11/01 04:54:33;;;;;;;38.83;23.90;;;10.80;99.90;;;;;;7375414;19;20603;-68
2023/11/01 04:57:00;;;;;;;42.45;24.50;;;10.80;99.90;;;;;;7375581;19;20388;-68
2023/11/01 04:59:29;;;;;;;34.20;20.63;;;10.80;99.90;;;;;;7375207;19;20046;-68
2023/11/01 05:01:56;;;;;;;33.13;22.80;;;10.70;99.90;;;;;;7373098;19;20026;-68
2023/11/01 05:04:23;;;;;;;29.23;21.45;;;10.70;99.90;;;;;;7372804;19;20085;-68
2023/11/01 05:06:50;;;;;;;34.75;21.63;;;10.70;99.90;;;;;;7377533;19;20022;-67
2023/11/01 05:09:18;;;;;;;33.97;21.15;;;10.60;99.90;;;;;;7374290;19;20064;-67
2023/11/01 05:11:46;;;;;;;35.80;21.05;;;10.50;99.90;;;;;;7378014;19;20541;-66
2023/11/01 05:14:13;;;;;;;29.05;19.02;;;10.50;99.90;;;;;;7369779;19;20029;-67
2023/11/01 05:16:40;;;;;;;29.23;19.27;;;10.40;99.90;;;;;;7378932;19;20703;-67
2023/11/01 05:19:08;;;;;;;28.52;18.00;;;10.40;99.90;;;;;;7373768;19;20517;-67
2023/11/01 05:21:36;;;;;;;29.10;19.33;;;10.40;99.90;;;;;;7375751;19;20017;-67
2023/11/01 05:24:03;;;;;;;28.15;19.23;;;10.40;99.90;;;;;;7374398;19;20706;-67
2023/11/01 05:26:30;;;;;;;33.45;19.95;;;10.40;99.90;;;;;;7374994;19;20023;-67
2023/11/01 05:28:56;;;;;;;33.25;19.52;;;10.40;99.90;;;;;;7374939;19;20021;-67
2023/11/01 05:31:23;;;;;;;32.42;19.80;;;10.50;99.90;;;;;;7378737;19;20052;-67
2023/11/01 05:33:50;;;;;;;28.27;19.25;;;10.50;99.90;;;;;;7373144;19;20026;-67
2023/11/01 05:36:16;;;;;;;34.38;19.13;;;10.50;99.90;;;;;;7376379;19;20018;-67
2023/11/01 05:38:43;;;;;;;31.45;18.73;;;10.50;99.90;;;;;;7376009;19;20480;-67
2023/11/01 05:41:09;;;;;;;32.97;17.83;;;10.60;99.90;;;;;;7377291;19;20021;-67
2023/11/01 05:43:39;;;;;;;31.15;18.25;;;10.60;99.90;;;;;;7374065;19;20104;-67
2023/11/01 05:46:06;;;;;;;29.00;18.05;;;10.60;99.90;;;;;;7373068;19;20350;-67
2023/11/01 05:48:32;;;;;;;33.10;18.80;;;10.70;99.90;;;;;;7370399;19;20019;-67
2023/11/01 05:51:03;;;;;;;29.00;17.67;;;10.70;99.90;;;;;;7376718;19;20366;-67
2023/11/01 05:53:29;;;;;;;31.30;17.25;;;10.70;99.90;;;;;;7372308;19;20023;-67
2023/11/01 05:55:55;;;;;;;27.20;17.70;;;10.70;99.90;;;;;;7372729;19;20493;-67
2023/11/01 05:58:22;;;;;;;31.30;16.65;;;10.80;99.90;;;;;;7374100;19;20804;-68
2023/11/01 06:00:48;;;;;;;35.00;23.33;;;10.70;99.90;;;;;;7375012;19;20018;-61
2023/11/01 06:03:14;;;;;;;35.53;22.75;;;10.80;99.90;;;;;;7367765;19;20056;-60
2023/11/01 06:05:41;;;;;;;29.60;18.15;;;10.90;99.90;;;;;;7377052;19;20029;-62
2023/11/01 06:08:09;;;;;;;29.73;15.68;;;10.90;99.90;;;;;;7372290;19;20021;-64
2023/11/01 06:10:37;;;;;;;58.70;50.03;;;10.90;99.90;;;;;;7375038;19;20018;-61
2023/11/01 06:13:05;;;;;;;33.38;23.13;;;10.90;99.90;;;;;;7372221;19;20751;-62
2023/11/01 06:15:32;;;;;;;294.55;248.43;;;10.90;99.90;;;;;;7371751;19;20023;-62
2023/11/01 06:17:59;;;;;;;60.40;46.45;;;11.00;99.90;;;;;;7370008;19;20136;-62
2023/11/01 06:20:25;;;;;;;42.38;26.63;;;11.00;99.90;;;;;;7374846;19;20074;-61
2023/11/01 06:22:51;;;;;;;48.60;37.75;;;11.00;99.90;;;;;;7377549;19;20014;-62
2023/11/01 06:25:20;;;;;;;28.42;17.92;;;11.00;99.90;;;;;;7373026;19;20018;-62
2023/11/01 06:27:46;;;;;;;19.52;12.63;;;11.10;99.90;;;;;;7375000;19;20022;-61
2023/11/01 06:30:13;;;;;;;36.28;28.02;;;11.10;99.90;;;;;;7373130;19;20022;-62
2023/11/01 06:32:40;;;;;;;23.40;14.27;;;11.10;99.90;;;;;;7379788;19;20743;-61
2023/11/01 06:35:06;;;;;;;82.00;59.92;;;11.10;99.90;;;;;;7374737;19;20021;-62
2023/11/01 06:37:32;;;;;;;28.88;18.27;;;11.10;99.90;;;;;;7376839;19;20035;-62
2023/11/01 06:39:59;;;;;;;27.00;15.15;;;11.10;99.90;;;;;;7375807;19;20065;-62
2023/11/01 06:42:25;;;;;;;31.75;23.77;;;11.10;99.90;;;;;;7372470;19;20098;-62
2023/11/01 06:44:51;;;;;;;76.70;59.22;;;11.10;99.90;;;;;;7377066;19;20493;-62
2023/11/01 06:47:17;;;;;;;33.25;23.42;;;11.20;99.90;;;;;;7377864;19;20524;-62
2023/11/01 06:49:44;;;;;;;23.10;14.43;;;11.20;99.90;;;;;;7377895;19;20473;-62
2023/11/01 06:52:10;;;;;;;15.35;13.05;;;11.20;99.90;;;;;;7376185;19;20035;-61
2023/11/01 06:54:38;;;;;;;42.60;35.47;;;11.20;99.90;;;;;;7373209;19;20025;-62
2023/11/01 06:57:04;;;;;;;25.35;17.35;;;11.20;99.90;;;;;;7372641;19;20018;-62
2023/11/01 06:59:31;;;;;;;42.80;36.75;;;11.30;99.90;;;;;;7376800;19;20022;-59
2023/11/01 07:01:57;;;;;;;50.28;39.17;;;11.30;99.90;;;;;;7374868;19;20681;-61
2023/11/01 07:04:23;;;;;;;78.68;65.05;;;11.30;99.90;;;;;;7373378;19;20022;-62
2023/11/01 07:06:50;;;;;;;49.70;42.67;;;11.30;99.90;;;;;;7375865;19;20014;-62
2023/11/01 07:09:16;;;;;;;36.40;28.17;;;11.40;99.90;;;;;;7374127;19;20876;-61
2023/11/01 07:11:47;;;;;;;17.90;11.68;;;11.40;99.90;;;;;;7375598;19;20018;-61
2023/11/01 07:14:14;;;;;;;22.23;16.42;;;11.40;99.90;;;;;;7374298;19;20019;-60
2023/11/01 07:16:42;;;;;;;50.80;42.90;;;11.30;99.90;;;;;;7375343;19;20019;-65
2023/11/01 07:19:12;;;;;;;62.05;48.70;;;11.40;99.90;;;;;;7377012;19;20014;-65
2023/11/01 07:21:42;;;;;;;13.15;9.75;;;11.40;99.90;;;;;;7372736;19;20072;-71
2023/11/01 07:24:08;;;;;;;14.07;9.18;;;11.40;99.90;;;;;;7374544;19;20019;-68
2023/11/01 07:26:36;;;;;;;11.98;8.23;;;11.40;99.90;;;;;;7375284;19;20014;-68
2023/11/01 07:29:02;;;;;;;13.77;7.70;;;11.30;99.90;;;;;;7373647;19;20018;-68
2023/11/01 07:31:29;;;;;;;16.42;9.07;;;11.30;99.90;;;;;;7374597;19;20082;-68
2023/11/01 07:33:55;;;;;;;10.90;8.18;;;11.30;99.90;;;;;;7372654;19;20022;-67
2023/11/01 07:36:22;;;;;;;14.57;7.63;;;11.30;99.90;;;;;;7375254;19;20090;-68
2023/11/01 07:38:49;;;;;;;11.18;7.05;;;11.30;99.90;;;;;;7375849;19;20780;-68
2023/11/01 07:41:16;;;;;;;12.20;8.00;;;11.30;99.90;;;;;;7374022;19;20025;-68
2023/11/01 07:43:43;;;;;;;9.48;7.40;;;11.20;99.90;;;;;;7375116;19;20833;-68
2023/11/01 07:46:09;;;;;;;11.82;7.13;;;11.30;99.90;;;;;;7373822;19;20018;-68
2023/11/01 07:48:36;;;;;;;11.18;7.68;;;11.30;99.90;;;;;;7375606;19;20042;-68
2023/11/01 07:51:05;;;;;;;10.15;6.95;;;11.30;99.90;;;;;;7372767;19;20090;-67
2023/11/01 07:53:31;;;;;;;10.95;6.75;;;11.30;99.90;;;;;;7372292;19;20018;-67
2023/11/01 07:55:58;;;;;;;9.73;6.88;;;11.30;99.90;;;;;;7369647;19;20107;-67
2023/11/01 07:58:24;;;;;;;10.23;7.25;;;11.30;99.90;;;;;;7376494;19;20046;-67
2023/11/01 08:00:50;;;;;;;9.73;6.55;;;11.30;99.90;;;;;;7373441;19;20025;-67
2023/11/01 08:03:17;;;;;;;10.43;7.18;;;11.40;99.90;;;;;;7373615;19;20018;-67
2023/11/01 08:05:43;;;;;;;10.50;7.15;;;11.40;99.90;;;;;;7375181;19;20083;-66
2023/11/01 08:08:13;;;;;;;11.15;7.22;;;11.40;99.90;;;;;;7372931;19;20574;-66
2023/11/01 08:10:39;;;;;;;10.55;6.82;;;11.40;99.90;;;;;;7380942;19;20086;-66
2023/11/01 08:13:06;;;;;;;11.65;7.10;;;11.40;99.90;;;;;;7375623;19;20686;-66
2023/11/01 08:15:33;;;;;;;9.57;7.07;;;11.40;99.90;;;;;;7380470;19;20049;-66
2023/11/01 08:18:02;;;;;;;11.25;6.82;;;11.40;99.90;;;;;;7378855;19;20593;-66
2023/11/01 08:20:30;;;;;;;10.07;7.45;;;11.40;99.90;;;;;;7378797;19;20047;-67
2023/11/01 08:22:57;;;;;;;11.23;7.95;;;11.50;99.90;;;;;;7378468;19;20021;-69
2023/11/01 08:25:23;;;;;;;13.85;8.52;;;11.50;99.90;;;;;;7379025;19;20843;-69
2023/11/01 08:27:50;;;;;;;15.63;9.20;;;11.50;99.90;;;;;;7378886;19;20017;-69
2023/11/01 08:30:18;;;;;;;13.20;9.55;;;11.60;99.90;;;;;;7378671;19;20011;-69
2023/11/01 08:32:44;;;;;;;16.25;9.93;;;11.60;99.90;;;;;;7378265;19;20050;-68
2023/11/01 08:35:11;;;;;;;12.98;9.52;;;11.60;99.90;;;;;;7376860;19;20019;-70
2023/11/01 08:37:38;;;;;;;16.23;10.93;;;11.70;99.90;;;;;;7378896;19;20019;-69
2023/11/01 08:40:04;;;;;;;15.10;10.43;;;11.70;99.90;;;;;;7377537;19;20580;-69
2023/11/01 08:42:32;;;;;;;15.75;10.50;;;11.80;99.90;;;;;;7378223;19;20010;-69
2023/11/01 08:44:59;;;;;;;15.90;10.68;;;11.80;99.90;;;;;;7376738;19;20026;-66
2023/11/01 08:47:33;;;;;;;13.80;10.07;;;11.80;99.90;;;;;;7377545;19;20153;-66
2023/11/01 08:50:00;;;;;;;15.02;10.63;;;11.80;99.90;;;;;;7378421;19;20014;-66
2023/11/01 08:52:28;;;;;;;15.43;10.98;;;11.90;99.90;;;;;;7380862;19;20029;-66
2023/11/01 08:54:57;;;;;;;16.60;11.23;;;11.90;99.90;;;;;;7374070;19;20026;-69
2023/11/01 08:57:24;;;;;;;15.18;11.30;;;11.90;99.90;;;;;;7372485;19;20094;-69
2023/11/01 08:59:51;;;;;;;16.17;11.65;;;12.00;99.90;;;;;;7380143;19;20018;-70
2023/11/01 09:02:18;;;;;;;21.60;12.70;;;12.00;99.90;;;;;;7376332;19;21011;-65
2023/11/01 09:04:44;;;;;;;18.15;12.77;;;12.00;99.90;;;;;;7377253;19;20115;-70
2023/11/01 09:07:11;;;;;;;20.75;13.10;;;12.10;99.90;;;;;;7373018;19;20839;-66
2023/11/01 09:09:37;;;;;;;22.42;13.90;;;12.10;99.90;;;;;;7379442;19;20477;-65
2023/11/01 09:12:04;;;;;;;22.60;14.38;;;12.10;99.90;;;;;;7377987;19;20031;-70
2023/11/01 09:14:30;;;;;;;23.85;14.82;;;12.10;99.90;;;;;;7375634;19;20015;-70
2023/11/01 09:16:56;;;;;;;22.30;15.32;;;12.20;99.90;;;;;;7374375;19;20029;-71
2023/11/01 09:19:22;;;;;;;24.85;16.77;;;12.30;99.90;;;;;;7376523;19;20039;-69
2023/11/01 09:21:50;;;;;;;27.30;15.98;;;12.30;99.90;;;;;;7374742;19;20824;-70
2023/11/01 09:24:16;;;;;;;24.73;15.90;;;12.40;99.90;;;;;;7380003;19;20028;-69
2023/11/01 09:26:42;;;;;;;25.95;14.90;;;12.40;99.90;;;;;;7373895;19;20014;-69
2023/11/01 09:29:08;;;;;;;25.73;15.38;;;12.50;99.90;;;;;;7377172;19;20019;-69
2023/11/01 09:31:36;;;;;;;26.10;14.40;;;12.60;99.90;;;;;;7377307;19;20041;-66
2023/11/01 09:34:02;;;;;;;23.20;13.82;;;12.70;99.90;;;;;;7373905;19;20029;-66
2023/11/01 09:36:28;;;;;;;28.50;15.05;;;12.80;99.90;;;;;;7378043;19;20021;-66
2023/11/01 09:38:54;;;;;;;28.08;14.65;;;12.90;99.90;;;;;;7375909;19;20042;-66
2023/11/01 09:41:28;;;;;;;27.63;14.20;;;12.90;99.90;;;;;;7378254;19;20026;-66
2023/11/01 09:43:59;;;;;;;21.52;12.68;;;13.00;99.90;;;;;;7375431;19;20371;-66
2023/11/01 09:46:26;;;;;;;23.07;12.67;;;13.10;99.90;;;;;;7373949;19;20033;-66
2023/11/01 09:48:55;;;;;;;25.05;12.57;;;13.10;99.90;;;;;;7376278;19;20263;-66
2023/11/01 09:51:21;;;;;;;24.05;12.32;;;13.20;99.90;;;;;;7376032;19;20510;-66
2023/11/01 09:53:48;;;;;;;18.90;11.98;;;13.20;99.90;;;;;;7375201;19;20119;-66
2023/11/01 09:56:16;;;;;;;20.65;11.13;;;13.20;99.90;;;;;;7372034;19;20018;-66
2023/11/01 09:58:42;;;;;;;24.05;10.98;;;13.30;99.90;;;;;;7372818;19;20038;-67
2023/11/01 10:01:09;;;;;;;16.83;10.40;;;13.30;99.90;;;;;;7373996;19;20835;-66
2023/11/01 10:03:35;;;;;;;25.70;10.90;;;13.40;99.90;;;;;;7370763;19;20082;-66
2023/11/01 10:06:02;;;;;;;22.00;10.40;;;13.40;99.90;;;;;;7373339;19;20014;-67
2023/11/01 10:08:28;;;;;;;22.83;10.60;;;13.50;99.90;;;;;;7373897;19;20029;-67
2023/11/01 10:11:00;;;;;;;20.48;9.73;;;13.50;99.90;;;;;;7377420;19;20011;-67
2023/11/01 10:13:33;;;;;;;23.20;9.02;;;13.60;99.90;;;;;;7368750;19;20018;-66
2023/11/01 10:15:59;;;;;;;18.75;8.95;;;13.60;99.90;;;;;;7370036;19;20022;-67
2023/11/01 10:18:25;;;;;;;17.38;8.93;;;13.60;99.90;;;;;;7370502;19;20030;-67
2023/11/01 10:20:52;;;;;;;17.23;8.60;;;13.60;99.90;;;;;;7373891;19;20018;-67
2023/11/01 10:23:19;;;;;;;19.40;8.82;;;13.70;99.90;;;;;;7370318;19;20084;-70
2023/11/01 10:25:46;;;;;;;18.55;8.25;;;13.70;99.90;;;;;;7372415;19;20022;-71
2023/11/01 10:28:13;;;;;;;17.08;8.02;;;13.70;99.90;;;;;;7374264;19;20035;-70
2023/11/01 10:30:43;;;;;;;18.38;8.30;;;13.70;99.90;;;;;;7374176;19;20037;-70
2023/11/01 10:33:10;;;;;;;17.13;7.65;;;13.70;99.90;;;;;;7371602;19;20042;-70
2023/11/01 10:35:37;;;;;;;17.13;7.80;;;13.70;99.90;;;;;;7370085;19;20010;-70
2023/11/01 10:38:03;;;;;;;18.85;7.95;;;13.70;99.90;;;;;;7371807;19;20370;-70
2023/11/01 10:40:30;;;;;;;21.13;7.63;;;13.60;99.90;;;;;;7373423;19;20054;-67
2023/11/01 10:42:58;;;;;;;16.92;6.90;;;13.60;99.90;;;;;;7373025;19;20029;-67
2023/11/01 10:45:25;;;;;;;19.05;11.50;;;13.60;99.90;;;;;;7371959;19;20089;-67
2023/11/01 10:47:55;;;;;;;29.17;11.23;;;13.60;99.90;;;;;;7374100;19;20043;-67
2023/11/01 10:50:25;;;;;;;15.75;7.85;;;13.60;99.90;;;;;;7375122;19;20023;-67
2023/11/01 10:52:52;;;;;;;17.95;8.05;;;13.70;99.90;;;;;;7365161;19;20960;-66
2023/11/01 10:55:20;;;;;;;17.15;8.05;;;13.80;99.90;;;;;;7368732;19;20014;-67
2023/11/01 10:57:55;;;;;;;15.52;7.07;;;13.80;99.90;;;;;;7367273;19;20764;-69
2023/11/01 11:00:38;;;;;;;17.02;7.75;;;14.00;99.90;;;;;;7370248;19;20018;-69
2023/11/01 11:03:20;;;;;;;13.20;5.63;;;14.20;99.90;;;;;;7366573;19;20018;-69
2023/11/01 11:05:47;;;;;;;;;;;14.40;99.90;;;;;;7371972;19;20679;-67
2023/11/01 11:08:13;;;;;;;17.63;6.15;;;14.50;99.90;;;;;;7368320;19;19922;-69
2023/11/01 11:10:42;;;;;;;14.02;5.32;;;14.80;99.90;;;;;;7373665;19;20558;-69
2023/11/01 11:13:09;;;;;;;12.07;4.63;;;14.80;99.90;;;;;;7369163;19;20054;-70
2023/11/01 11:15:47;;;;;;;11.65;5.05;;;14.90;99.90;;;;;;7367848;19;20024;-69
2023/11/01 11:18:16;;;;;;;18.85;4.88;;;14.80;99.90;;;;;;7370344;19;20073;-67
2023/11/01 11:20:42;;;;;;;15.65;4.80;;;14.70;99.90;;;;;;7366323;19;20764;-67
2023/11/01 11:23:10;;;;;;;14.68;4.63;;;14.70;99.90;;;;;;7366141;19;20020;-67
2023/11/01 11:28:32;;;;;;;16.77;5.30;;;14.70;99.90;;;;;;7370266;19;20018;-68
2023/11/01 11:31:08;;;;;;;13.05;4.70;;;14.70;99.90;;;;;;7369853;19;20486;-67
2023/11/01 11:33:46;;;;;;;13.65;5.03;;;15.20;99.90;;;;;;7370542;19;20086;-68
2023/11/01 11:36:14;;;;;;;9.95;4.00;;;15.40;99.90;;;;;;7365035;19;20043;-68
2023/11/01 11:38:51;;;;;;;12.88;4.22;;;15.50;99.90;;;;;;7368521;19;20018;-68
2023/11/01 11:41:22;;;;;;;13.27;4.18;;;15.50;99.90;;;;;;7371968;19;20944;-68
2023/11/01 11:44:07;;;;;;;10.80;3.47;;;15.40;99.90;;;;;;7371053;19;20050;-68
2023/11/01 11:46:46;;;;;;;10.25;3.35;;;15.20;99.90;;;;;;7379532;19;20067;-67
2023/11/01 11:49:24;;;;;;;17.45;4.40;;;15.10;99.90;;;;;;7377282;19;20014;-67
2023/11/01 11:51:52;;;;;;;11.13;3.75;;;15.00;99.90;;;;;;7375476;19;20018;-68
2023/11/01 11:54:32;;;;;;;11.25;3.58;;;15.00;99.90;;;;;;7378726;19;20010;-68
2023/11/01 11:57:07;;;;;;;14.43;3.35;;;15.00;99.90;;;;;;7376695;19;20018;-67
2023/11/01 11:59:35;;;;;;;15.32;6.65;;;15.10;99.90;;;;;;7371127;19;20033;-68
2023/11/01 12:02:13;;;;;;;15.18;3.97;;;15.00;99.90;;;;;;7372384;19;20018;-68
2023/11/01 12:04:40;;;;;;;9.65;3.25;;;15.10;99.90;;;;;;7380158;19;20018;-68
2023/11/01 12:07:07;;;;;;;12.80;3.38;;;15.00;99.90;;;;;;7368366;19;20022;-68
2023/11/01 12:09:34;;;;;;;11.93;3.03;;;15.00;99.90;;;;;;7376688;19;20023;-68
2023/11/01 12:12:09;;;;;;;13.10;3.58;;;15.20;99.90;;;;;;7376845;19;20021;-68
2023/11/01 12:14:37;;;;;;;10.00;3.33;;;15.40;99.90;;;;;;7377288;19;20023;-68
2023/11/01 12:17:04;;;;;;;7.90;2.90;;;15.60;99.90;;;;;;7373984;19;20058;-68
2023/11/01 12:19:32;;;;;;;10.35;2.58;;;16.20;99.90;;;;;;7375283;19;20014;-69
2023/11/01 12:22:00;;;;;;;9.30;2.45;;;16.20;99.90;;;;;;7375261;19;20011;-68
2023/11/01 12:24:41;;;;;;;11.23;2.72;;;16.00;99.90;;;;;;7374493;19;20043;-69
2023/11/01 12:27:10;;;;;;;10.48;3.20;;;15.90;99.90;;;;;;7377518;19;20060;-68
2023/11/01 12:29:39;;;;;;;7.40;2.53;;;16.00;99.90;;;;;;7371317;19;20003;-69
2023/11/01 12:32:14;;;;;;;14.13;2.97;;;16.20;99.90;;;;;;7374417;19;20596;-68
2023/11/01 12:35:04;;;;;;;9.25;2.60;;;16.70;99.90;;;;;;7370994;19;20018;-70